sensor_id;sensor_type;location;lat;lon;timestamp;pressure;altitude;pressure_sealevel;temperature;humidity
58245;BME280;44550;43.864;25.986;2023-04-10T00:03:09;101473.41;;;10.36;73.62
58245;BME280;44550;43.864;25.986;2023-04-10T00:13:11;101474.50;;;10.47;72.92
58245;BME280;44550;43.864;25.986;2023-04-10T00:17:38;101463.53;;;10.23;73.66
58245;BME280;44550;43.864;25.986;2023-04-10T00:21:47;101465.81;;;10.06;74.43
58245;BME280;44550;43.864;25.986;2023-04-10T00:30:14;101461.03;;;9.86;75.84
58245;BME280;44550;43.864;25.986;2023-04-10T00:34:17;101455.00;;;9.89;76.04
58245;BME280;44550;43.864;25.986;2023-04-10T00:38:20;101450.44;;;9.79;76.65
58245;BME280;44550;43.864;25.986;2023-04-10T00:42:36;101448.41;;;9.65;77.80
58245;BME280;44550;43.864;25.986;2023-04-10T00:46:49;101445.06;;;9.71;79.12
58245;BME280;44550;43.864;25.986;2023-04-10T00:51:00;101435.63;;;9.78;79.53
58245;BME280;44550;43.864;25.986;2023-04-10T00:55:16;101429.53;;;9.79;80.05
58245;BME280;44550;43.864;25.986;2023-04-10T00:59:26;101429.09;;;10.00;79.85
58245;BME280;44550;43.864;25.986;2023-04-10T01:03:45;101421.84;;;9.85;82.09
58245;BME280;44550;43.864;25.986;2023-04-10T01:08:01;101418.22;;;9.78;81.85
58245;BME280;44550;43.864;25.986;2023-04-10T01:12:21;101417.47;;;9.84;80.41
58245;BME280;44550;43.864;25.986;2023-04-10T01:16:35;101420.97;;;9.86;79.73
58245;BME280;44550;43.864;25.986;2023-04-10T01:21:05;101417.22;;;9.73;80.18
58245;BME280;44550;43.864;25.986;2023-04-10T01:25:18;101416.03;;;9.57;80.85
58245;BME280;44550;43.864;25.986;2023-04-10T01:29:58;101415.13;;;9.55;81.39
58245;BME280;44550;43.864;25.986;2023-04-10T01:34:21;101414.97;;;9.48;81.79
58245;BME280;44550;43.864;25.986;2023-04-10T01:38:26;101413.63;;;9.27;82.88
58245;BME280;44550;43.864;25.986;2023-04-10T01:42:30;101416.16;;;9.24;83.46
58245;BME280;44550;43.864;25.986;2023-04-10T01:46:41;101413.50;;;9.21;84.16
58245;BME280;44550;43.864;25.986;2023-04-10T01:50:59;101417.84;;;9.21;84.26
58245;BME280;44550;43.864;25.986;2023-04-10T01:55:25;101417.06;;;9.25;84.41
58245;BME280;44550;43.864;25.986;2023-04-10T02:04:14;101415.69;;;9.42;84.38
58245;BME280;44550;43.864;25.986;2023-04-10T02:08:37;101420.19;;;9.48;84.35
58245;BME280;44550;43.864;25.986;2023-04-10T02:13:22;101417.50;;;9.45;84.93
58245;BME280;44550;43.864;25.986;2023-04-10T02:22:43;101410.50;;;9.44;84.84
58245;BME280;44550;43.864;25.986;2023-04-10T02:27:10;101418.16;;;9.34;85.07
58245;BME280;44550;43.864;25.986;2023-04-10T02:31:38;101406.69;;;9.29;85.21
58245;BME280;44550;43.864;25.986;2023-04-10T02:36:17;101407.31;;;9.17;86.26
58245;BME280;44550;43.864;25.986;2023-04-10T02:40:48;101404.50;;;9.08;87.04
58245;BME280;44550;43.864;25.986;2023-04-10T02:50:54;101400.19;;;8.74;89.13
58245;BME280;44550;43.864;25.986;2023-04-10T02:59:58;101397.75;;;8.47;90.98
58245;BME280;44550;43.864;25.986;2023-04-10T03:04:38;101405.66;;;8.50;91.10
58245;BME280;44550;43.864;25.986;2023-04-10T03:09:03;101397.06;;;8.54;90.72
58245;BME280;44550;43.864;25.986;2023-04-10T03:13:24;101405.13;;;8.63;90.03
58245;BME280;44550;43.864;25.986;2023-04-10T03:18:08;101408.59;;;8.64;90.14
58245;BME280;44550;43.864;25.986;2023-04-10T03:23:07;101404.41;;;8.69;89.78
58245;BME280;44550;43.864;25.986;2023-04-10T03:27:50;101408.47;;;8.58;90.66
58245;BME280;44550;43.864;25.986;2023-04-10T03:33:28;101404.59;;;8.43;92.56
58245;BME280;44550;43.864;25.986;2023-04-10T03:52:47;101421.94;;;8.75;91.74
58245;BME280;44550;43.864;25.986;2023-04-10T04:02:48;101439.22;;;8.71;90.97
58245;BME280;44550;43.864;25.986;2023-04-10T04:07:51;101429.09;;;8.50;91.36
58245;BME280;44550;43.864;25.986;2023-04-10T04:12:51;101429.69;;;8.38;92.75
58245;BME280;44550;43.864;25.986;2023-04-10T04:17:54;101427.22;;;8.14;94.70
58245;BME280;44550;43.864;25.986;2023-04-10T04:23:01;101428.34;;;8.22;94.59
58245;BME280;44550;43.864;25.986;2023-04-10T04:28:06;101436.84;;;8.17;94.34
58245;BME280;44550;43.864;25.986;2023-04-10T04:33:58;101429.34;;;7.96;95.51
58245;BME280;44550;43.864;25.986;2023-04-10T04:42:55;101436.91;;;8.18;94.64
58245;BME280;44550;43.864;25.986;2023-04-10T04:47:35;101438.28;;;8.06;94.69
58245;BME280;44550;43.864;25.986;2023-04-10T04:52:46;101438.59;;;8.16;94.29
58245;BME280;44550;43.864;25.986;2023-04-10T04:57:14;101445.03;;;8.29;93.48
58245;BME280;44550;43.864;25.986;2023-04-10T05:06:48;101438.22;;;8.67;90.83
58245;BME280;44550;43.864;25.986;2023-04-10T05:11:24;101439.50;;;8.82;89.68
58245;BME280;44550;43.864;25.986;2023-04-10T05:16:09;101441.44;;;8.90;88.86
58245;BME280;44550;43.864;25.986;2023-04-10T05:20:48;101442.63;;;9.03;88.66
58245;BME280;44550;43.864;25.986;2023-04-10T05:25:49;101439.31;;;9.48;85.77
58245;BME280;44550;43.864;25.986;2023-04-10T05:30:09;101448.06;;;9.50;85.67
58245;BME280;44550;43.864;25.986;2023-04-10T05:34:35;101445.72;;;9.61;85.51
58245;BME280;44550;43.864;25.986;2023-04-10T05:39:23;101430.91;;;9.61;84.45
58245;BME280;44550;43.864;25.986;2023-04-10T05:48:29;101455.09;;;9.53;84.11
58245;BME280;44550;43.864;25.986;2023-04-10T05:52:56;101454.13;;;9.48;84.21
58245;BME280;44550;43.864;25.986;2023-04-10T05:57:30;101448.75;;;9.41;85.03
58245;BME280;44550;43.864;25.986;2023-04-10T06:01:50;101452.44;;;9.51;85.45
58245;BME280;44550;43.864;25.986;2023-04-10T06:06:07;101451.81;;;9.63;84.94
58245;BME280;44550;43.864;25.986;2023-04-10T06:10:41;101455.22;;;9.57;84.10
58245;BME280;44550;43.864;25.986;2023-04-10T06:14:56;101451.38;;;9.81;82.62
58245;BME280;44550;43.864;25.986;2023-04-10T06:19:08;101453.97;;;9.81;81.45
58245;BME280;44550;43.864;25.986;2023-04-10T06:23:23;101450.50;;;9.82;81.53
58245;BME280;44550;43.864;25.986;2023-04-10T06:27:33;101457.66;;;9.91;82.20
58245;BME280;44550;43.864;25.986;2023-04-10T06:31:40;101462.47;;;10.13;80.19
58245;BME280;44550;43.864;25.986;2023-04-10T06:35:51;101458.69;;;9.97;80.48
58245;BME280;44550;43.864;25.986;2023-04-10T06:40:07;101459.34;;;10.29;79.72
58245;BME280;44550;43.864;25.986;2023-04-10T06:44:18;101459.25;;;10.72;77.60
58245;BME280;44550;43.864;25.986;2023-04-10T06:48:22;101463.00;;;10.86;76.20
58245;BME280;44550;43.864;25.986;2023-04-10T06:52:26;101459.16;;;11.17;74.64
58245;BME280;44550;43.864;25.986;2023-04-10T06:56:42;101461.13;;;11.32;73.46
58245;BME280;44550;43.864;25.986;2023-04-10T07:00:58;101460.97;;;11.21;73.54
58245;BME280;44550;43.864;25.986;2023-04-10T07:05:05;101462.09;;;11.39;72.69
58245;BME280;44550;43.864;25.986;2023-04-10T07:09:08;101463.88;;;11.40;72.62
58245;BME280;44550;43.864;25.986;2023-04-10T07:13:17;101463.72;;;11.31;73.20
58245;BME280;44550;43.864;25.986;2023-04-10T07:17:26;101467.38;;;11.40;73.06
58245;BME280;44550;43.864;25.986;2023-04-10T07:21:43;101466.34;;;11.31;72.79
58245;BME280;44550;43.864;25.986;2023-04-10T07:25:51;101461.41;;;11.50;71.53
58245;BME280;44550;43.864;25.986;2023-04-10T07:30:08;101461.63;;;11.67;71.39
58245;BME280;44550;43.864;25.986;2023-04-10T07:34:30;101465.41;;;11.85;70.13
58245;BME280;44550;43.864;25.986;2023-04-10T07:38:37;101458.66;;;12.02;70.34
58245;BME280;44550;43.864;25.986;2023-04-10T07:42:45;101452.03;;;12.36;68.75
58245;BME280;44550;43.864;25.986;2023-04-10T07:47:01;101451.59;;;12.79;66.72
58245;BME280;44550;43.864;25.986;2023-04-10T07:51:09;101450.66;;;12.74;67.49
58245;BME280;44550;43.864;25.986;2023-04-10T07:55:18;101442.91;;;12.87;66.56
58245;BME280;44550;43.864;25.986;2023-04-10T07:59:25;101448.31;;;13.06;65.00
58245;BME280;44550;43.864;25.986;2023-04-10T08:03:28;101437.19;;;13.33;64.94
58245;BME280;44550;43.864;25.986;2023-04-10T08:07:29;101431.13;;;13.46;63.01
58245;BME280;44550;43.864;25.986;2023-04-10T08:11:36;101433.75;;;13.46;64.51
58245;BME280;44550;43.864;25.986;2023-04-10T08:15:56;101435.66;;;13.73;64.35
58245;BME280;44550;43.864;25.986;2023-04-10T08:20:25;101425.28;;;14.01;63.03
58245;BME280;44550;43.864;25.986;2023-04-10T08:28:41;101417.50;;;14.41;60.74
58245;BME280;44550;43.864;25.986;2023-04-10T08:32:48;101415.81;;;14.72;60.17
58245;BME280;44550;43.864;25.986;2023-04-10T08:36:55;101422.75;;;14.47;59.85
58245;BME280;44550;43.864;25.986;2023-04-10T08:40:58;101421.03;;;14.52;61.24
58245;BME280;44550;43.864;25.986;2023-04-10T08:45:06;101407.91;;;14.90;59.67
58245;BME280;44550;43.864;25.986;2023-04-10T08:49:28;101407.00;;;15.20;58.35
58245;BME280;44550;43.864;25.986;2023-04-10T08:53:45;101396.47;;;14.93;59.71
58245;BME280;44550;43.864;25.986;2023-04-10T08:57:48;101388.56;;;14.96;59.10
58245;BME280;44550;43.864;25.986;2023-04-10T09:01:59;101385.06;;;15.11;59.46
58245;BME280;44550;43.864;25.986;2023-04-10T09:06:20;101381.50;;;15.25;57.13
58245;BME280;44550;43.864;25.986;2023-04-10T09:10:39;101379.81;;;15.08;57.96
58245;BME280;44550;43.864;25.986;2023-04-10T09:14:44;101364.88;;;14.99;57.24
58245;BME280;44550;43.864;25.986;2023-04-10T09:19:00;101356.97;;;15.17;57.75
58245;BME280;44550;43.864;25.986;2023-04-10T09:23:18;101346.38;;;15.37;56.67
58245;BME280;44550;43.864;25.986;2023-04-10T09:27:31;101343.75;;;15.34;57.10
58245;BME280;44550;43.864;25.986;2023-04-10T09:31:46;101333.03;;;15.76;54.44
58245;BME280;44550;43.864;25.986;2023-04-10T09:35:49;101330.25;;;16.05;53.74
58245;BME280;44550;43.864;25.986;2023-04-10T09:39:49;101329.19;;;16.30;52.93
58245;BME280;44550;43.864;25.986;2023-04-10T09:48:27;101314.03;;;16.57;51.69
58245;BME280;44550;43.864;25.986;2023-04-10T09:52:36;101317.72;;;16.34;50.93
58245;BME280;44550;43.864;25.986;2023-04-10T09:56:56;101295.75;;;16.31;51.30
58245;BME280;44550;43.864;25.986;2023-04-10T10:01:08;101299.88;;;16.65;50.46
58245;BME280;44550;43.864;25.986;2023-04-10T10:05:27;101288.44;;;16.63;49.29
58245;BME280;44550;43.864;25.986;2023-04-10T10:09:31;101291.88;;;16.72;50.03
58245;BME280;44550;43.864;25.986;2023-04-10T10:13:43;101281.31;;;16.76;48.49
58245;BME280;44550;43.864;25.986;2023-04-10T10:18:03;101282.22;;;16.72;46.88
58245;BME280;44550;43.864;25.986;2023-04-10T10:47:38;101246.19;;;16.62;42.79
58245;BME280;44550;43.864;25.986;2023-04-10T11:11:03;101223.44;;;17.30;39.19
58245;BME280;44550;43.864;25.986;2023-04-10T11:15:31;101219.13;;;17.22;39.85
58245;BME280;44550;43.864;25.986;2023-04-10T11:20:02;101219.41;;;17.00;40.67
58245;BME280;44550;43.864;25.986;2023-04-10T11:24:08;101209.53;;;17.14;40.92
58245;BME280;44550;43.864;25.986;2023-04-10T11:32:41;101209.22;;;17.39;40.17
58245;BME280;44550;43.864;25.986;2023-04-10T11:36:52;101192.38;;;17.46;40.16
58245;BME280;44550;43.864;25.986;2023-04-10T11:41:02;101203.63;;;17.60;39.56
58245;BME280;44550;43.864;25.986;2023-04-10T11:45:25;101191.50;;;17.44;39.88
58245;BME280;44550;43.864;25.986;2023-04-10T11:49:36;101179.16;;;17.46;39.89
58245;BME280;44550;43.864;25.986;2023-04-10T11:54:06;101178.34;;;17.41;38.72
58245;BME280;44550;43.864;25.986;2023-04-10T11:58:26;101175.53;;;17.55;39.96
58245;BME280;44550;43.864;25.986;2023-04-10T12:02:59;101165.78;;;17.57;39.40
58245;BME280;44550;43.864;25.986;2023-04-10T12:07:03;101150.03;;;17.49;38.86
58245;BME280;44550;43.864;25.986;2023-04-10T12:11:24;101149.78;;;17.66;38.79
58245;BME280;44550;43.864;25.986;2023-04-10T12:25:09;101130.97;;;17.84;37.96
58245;BME280;44550;43.864;25.986;2023-04-10T12:29:28;101115.22;;;17.18;38.37
58245;BME280;44550;43.864;25.986;2023-04-10T12:33:43;101114.97;;;17.36;38.10
58245;BME280;44550;43.864;25.986;2023-04-10T12:37:52;101114.03;;;17.41;38.20
58245;BME280;44550;43.864;25.986;2023-04-10T12:42:12;101101.19;;;17.72;38.41
58245;BME280;44550;43.864;25.986;2023-04-10T12:46:26;101099.94;;;17.94;37.36
58245;BME280;44550;43.864;25.986;2023-04-10T12:50:40;101095.09;;;17.67;34.32
58245;BME280;44550;43.864;25.986;2023-04-10T12:55:06;101089.72;;;17.73;35.78
58245;BME280;44550;43.864;25.986;2023-04-10T12:59:14;101088.72;;;17.81;36.95
58245;BME280;44550;43.864;25.986;2023-04-10T13:03:18;101076.69;;;17.60;37.77
58245;BME280;44550;43.864;25.986;2023-04-10T13:07:29;101072.09;;;17.72;35.91
58245;BME280;44550;43.864;25.986;2023-04-10T13:11:37;101072.91;;;17.78;37.04
58245;BME280;44550;43.864;25.986;2023-04-10T13:15:50;101071.56;;;18.02;35.40
58245;BME280;44550;43.864;25.986;2023-04-10T13:19:56;101059.72;;;17.74;37.19
58245;BME280;44550;43.864;25.986;2023-04-10T13:24:09;101066.16;;;17.57;37.32
58245;BME280;44550;43.864;25.986;2023-04-10T13:28:18;101056.38;;;17.63;37.58
58245;BME280;44550;43.864;25.986;2023-04-10T13:32:25;101058.13;;;17.65;36.72
58245;BME280;44550;43.864;25.986;2023-04-10T13:36:29;101055.69;;;18.02;36.94
58245;BME280;44550;43.864;25.986;2023-04-10T13:40:35;101051.31;;;18.01;35.93
58245;BME280;44550;43.864;25.986;2023-04-10T13:44:50;101052.94;;;17.57;35.03
58245;BME280;44550;43.864;25.986;2023-04-10T13:49:09;101052.31;;;17.43;36.10
58245;BME280;44550;43.864;25.986;2023-04-10T13:53:22;101055.75;;;17.48;36.22
58245;BME280;44550;43.864;25.986;2023-04-10T13:57:30;101047.81;;;17.48;36.82
58245;BME280;44550;43.864;25.986;2023-04-10T14:01:42;101044.13;;;17.58;37.19
58245;BME280;44550;43.864;25.986;2023-04-10T14:06:07;101034.31;;;17.65;37.11
58245;BME280;44550;43.864;25.986;2023-04-10T14:10:15;101034.19;;;17.71;36.32
58245;BME280;44550;43.864;25.986;2023-04-10T14:14:21;101033.69;;;17.49;36.18
58245;BME280;44550;43.864;25.986;2023-04-10T14:18:32;101033.25;;;17.23;37.31
58245;BME280;44550;43.864;25.986;2023-04-10T14:22:45;101035.69;;;17.35;38.03
58245;BME280;44550;43.864;25.986;2023-04-10T14:26:56;101035.53;;;17.46;38.26
58245;BME280;44550;43.864;25.986;2023-04-10T14:31:05;101029.69;;;17.25;38.64
58245;BME280;44550;43.864;25.986;2023-04-10T14:35:13;101028.09;;;17.13;39.29
58245;BME280;44550;43.864;25.986;2023-04-10T14:39:34;101035.88;;;17.24;38.49
58245;BME280;44550;43.864;25.986;2023-04-10T14:43:43;101030.66;;;17.20;37.91
58245;BME280;44550;43.864;25.986;2023-04-10T14:48:00;101031.56;;;17.17;37.92
58245;BME280;44550;43.864;25.986;2023-04-10T14:52:04;101036.38;;;16.92;36.94
58245;BME280;44550;43.864;25.986;2023-04-10T14:56:16;101025.91;;;16.86;37.46
58245;BME280;44550;43.864;25.986;2023-04-10T15:00:17;101022.59;;;16.67;38.52
58245;BME280;44550;43.864;25.986;2023-04-10T15:04:25;101031.34;;;16.71;39.65
58245;BME280;44550;43.864;25.986;2023-04-10T15:08:29;101024.28;;;16.73;39.61
58245;BME280;44550;43.864;25.986;2023-04-10T15:12:32;101022.75;;;16.55;40.41
58245;BME280;44550;43.864;25.986;2023-04-10T15:16:38;101017.22;;;16.76;39.88
58245;BME280;44550;43.864;25.986;2023-04-10T15:21:00;101011.91;;;16.79;40.20
58245;BME280;44550;43.864;25.986;2023-04-10T15:25:06;101017.25;;;16.73;40.13
58245;BME280;44550;43.864;25.986;2023-04-10T15:34:14;101006.34;;;16.33;42.47
58245;BME280;44550;43.864;25.986;2023-04-10T15:38:37;101003.72;;;16.31;42.75
58245;BME280;44550;43.864;25.986;2023-04-10T15:42:47;101007.03;;;16.45;42.45
58245;BME280;44550;43.864;25.986;2023-04-10T15:46:52;101000.38;;;16.17;43.30
58245;BME280;44550;43.864;25.986;2023-04-10T15:50:58;100996.81;;;16.23;43.69
58245;BME280;44550;43.864;25.986;2023-04-10T15:55:08;100997.91;;;16.03;43.84
58245;BME280;44550;43.864;25.986;2023-04-10T15:59:09;100991.91;;;15.86;44.20
58245;BME280;44550;43.864;25.986;2023-04-10T16:03:20;100984.91;;;15.85;44.59
58245;BME280;44550;43.864;25.986;2023-04-10T16:07:26;100988.56;;;15.71;44.83
58245;BME280;44550;43.864;25.986;2023-04-10T16:11:28;100976.31;;;15.64;44.74
58245;BME280;44550;43.864;25.986;2023-04-10T16:15:32;100981.63;;;15.61;45.22
58245;BME280;44550;43.864;25.986;2023-04-10T16:19:33;100976.28;;;15.66;45.14
58245;BME280;44550;43.864;25.986;2023-04-10T16:23:37;100971.00;;;15.66;45.25
58245;BME280;44550;43.864;25.986;2023-04-10T16:27:59;100969.38;;;15.57;45.86
58245;BME280;44550;43.864;25.986;2023-04-10T16:32:05;100973.75;;;15.57;46.00
58245;BME280;44550;43.864;25.986;2023-04-10T16:36:10;100982.66;;;15.46;46.49
58245;BME280;44550;43.864;25.986;2023-04-10T16:40:21;100972.94;;;15.48;46.70
58245;BME280;44550;43.864;25.986;2023-04-10T16:44:24;100972.06;;;15.48;47.16
58245;BME280;44550;43.864;25.986;2023-04-10T16:48:28;100981.75;;;15.46;47.68
58245;BME280;44550;43.864;25.986;2023-04-10T16:52:48;100976.47;;;15.46;47.97
58245;BME280;44550;43.864;25.986;2023-04-10T16:56:57;100983.41;;;15.56;48.13
58245;BME280;44550;43.864;25.986;2023-04-10T17:01:14;100977.38;;;15.45;48.50
58245;BME280;44550;43.864;25.986;2023-04-10T17:05:22;100986.31;;;15.28;49.31
58245;BME280;44550;43.864;25.986;2023-04-10T17:13:57;100986.34;;;15.24;50.03
58245;BME280;44550;43.864;25.986;2023-04-10T17:18:03;100991.59;;;15.27;50.42
58245;BME280;44550;43.864;25.986;2023-04-10T17:22:08;100996.84;;;15.30;50.55
58245;BME280;44550;43.864;25.986;2023-04-10T17:26:14;101000.38;;;15.27;50.71
58245;BME280;44550;43.864;25.986;2023-04-10T17:30:21;101002.19;;;15.16;51.73
58245;BME280;44550;43.864;25.986;2023-04-10T17:34:33;101002.34;;;14.98;53.09
58245;BME280;44550;43.864;25.986;2023-04-10T17:38:49;101007.69;;;14.89;54.09
58245;BME280;44550;43.864;25.986;2023-04-10T17:42:54;101005.00;;;14.98;54.13
58245;BME280;44550;43.864;25.986;2023-04-10T17:47:00;101005.81;;;15.03;54.02
58245;BME280;44550;43.864;25.986;2023-04-10T17:51:04;101010.19;;;15.06;54.18
58245;BME280;44550;43.864;25.986;2023-04-10T17:55:09;101010.13;;;15.15;54.17
58245;BME280;44550;43.864;25.986;2023-04-10T17:59:17;101005.63;;;15.29;53.59
58245;BME280;44550;43.864;25.986;2023-04-10T18:03:29;101004.47;;;15.59;53.49
58245;BME280;44550;43.864;25.986;2023-04-10T18:07:30;101001.44;;;16.01;52.30
58245;BME280;44550;43.864;25.986;2023-04-10T18:11:34;101007.13;;;16.39;51.29
58245;BME280;44550;43.864;25.986;2023-04-10T18:15:35;101000.31;;;16.88;49.70
58245;BME280;44550;43.864;25.986;2023-04-10T18:19:37;101003.59;;;17.05;49.02
58245;BME280;44550;43.864;25.986;2023-04-10T18:23:38;101012.25;;;17.13;49.36
58245;BME280;44550;43.864;25.986;2023-04-10T18:27:40;101007.59;;;16.72;51.08
58245;BME280;44550;43.864;25.986;2023-04-10T18:32:08;101015.81;;;16.49;52.22
58245;BME280;44550;43.864;25.986;2023-04-10T18:36:18;101016.19;;;16.15;53.19
58245;BME280;44550;43.864;25.986;2023-04-10T18:40:21;101020.88;;;15.93;54.18
58245;BME280;44550;43.864;25.986;2023-04-10T18:44:28;101018.47;;;15.69;53.91
58245;BME280;44550;43.864;25.986;2023-04-10T18:48:32;101015.13;;;15.50;54.40
58245;BME280;44550;43.864;25.986;2023-04-10T18:52:45;101018.66;;;15.43;54.69
58245;BME280;44550;43.864;25.986;2023-04-10T18:56:51;101017.00;;;15.33;55.44
58245;BME280;44550;43.864;25.986;2023-04-10T19:00:57;101014.47;;;15.19;55.72
58245;BME280;44550;43.864;25.986;2023-04-10T19:05:02;101021.56;;;15.14;55.96
58245;BME280;44550;43.864;25.986;2023-04-10T19:09:27;101018.09;;;15.06;56.75
58245;BME280;44550;43.864;25.986;2023-04-10T19:13:28;101012.00;;;14.99;56.93
58245;BME280;44550;43.864;25.986;2023-04-10T19:17:35;101015.56;;;14.92;57.19
58245;BME280;44550;43.864;25.986;2023-04-10T19:21:38;101013.00;;;14.79;57.85
58245;BME280;44550;43.864;25.986;2023-04-10T19:25:43;101008.66;;;14.77;58.28
58245;BME280;44550;43.864;25.986;2023-04-10T19:29:49;100999.81;;;14.83;58.16
58245;BME280;44550;43.864;25.986;2023-04-10T19:33:50;101006.69;;;15.05;57.65
58245;BME280;44550;43.864;25.986;2023-04-10T19:38:01;100999.53;;;15.24;57.32
58245;BME280;44550;43.864;25.986;2023-04-10T19:42:11;101003.72;;;15.46;56.70
58245;BME280;44550;43.864;25.986;2023-04-10T19:46:17;101000.03;;;15.63;55.98
58245;BME280;44550;43.864;25.986;2023-04-10T19:50:27;100999.13;;;15.71;55.95
58245;BME280;44550;43.864;25.986;2023-04-10T19:54:29;101007.06;;;15.70;56.04
58245;BME280;44550;43.864;25.986;2023-04-10T19:58:43;101005.50;;;15.43;57.67
58245;BME280;44550;43.864;25.986;2023-04-10T20:02:47;101012.88;;;14.98;59.20
58245;BME280;44550;43.864;25.986;2023-04-10T20:06:52;101015.09;;;13.90;62.21
58245;BME280;44550;43.864;25.986;2023-04-10T20:10:57;101008.19;;;13.40;65.13
58245;BME280;44550;43.864;25.986;2023-04-10T20:15:11;101004.66;;;13.12;67.10
58245;BME280;44550;43.864;25.986;2023-04-10T20:19:16;100996.75;;;13.13;66.99
58245;BME280;44550;43.864;25.986;2023-04-10T20:23:22;100998.50;;;13.07;66.23
58245;BME280;44550;43.864;25.986;2023-04-10T20:27:33;100994.13;;;13.07;66.80
58245;BME280;44550;43.864;25.986;2023-04-10T20:31:44;100988.91;;;13.21;65.85
58245;BME280;44550;43.864;25.986;2023-04-10T20:35:49;100985.41;;;13.30;65.69
58245;BME280;44550;43.864;25.986;2023-04-10T20:39:50;100984.56;;;13.42;65.48
58245;BME280;44550;43.864;25.986;2023-04-10T20:43:52;100989.78;;;13.46;65.40
58245;BME280;44550;43.864;25.986;2023-04-10T20:48:06;100990.59;;;13.88;64.07
58245;BME280;44550;43.864;25.986;2023-04-10T20:52:18;100984.44;;;13.95;63.51
58245;BME280;44550;43.864;25.986;2023-04-10T20:56:49;100986.25;;;13.66;65.01
58245;BME280;44550;43.864;25.986;2023-04-10T21:01:24;100987.19;;;13.42;66.04
58245;BME280;44550;43.864;25.986;2023-04-10T21:05:48;100984.56;;;13.35;66.56
58245;BME280;44550;43.864;25.986;2023-04-10T21:11:07;100980.16;;;13.40;66.75
58245;BME280;44550;43.864;25.986;2023-04-10T21:15:54;100982.78;;;13.44;66.69
58245;BME280;44550;43.864;25.986;2023-04-10T21:20:09;100980.13;;;12.85;69.10
58245;BME280;44550;43.864;25.986;2023-04-10T21:24:14;100976.59;;;12.91;68.95
58245;BME280;44550;43.864;25.986;2023-04-10T21:28:19;100974.00;;;12.91;69.43
58245;BME280;44550;43.864;25.986;2023-04-10T21:32:38;100967.00;;;13.04;69.11
58245;BME280;44550;43.864;25.986;2023-04-10T21:36:48;100960.88;;;13.17;68.65
58245;BME280;44550;43.864;25.986;2023-04-10T21:40:58;100965.25;;;12.90;70.03
58245;BME280;44550;43.864;25.986;2023-04-10T21:45:07;100957.38;;;12.90;70.26
58245;BME280;44550;43.864;25.986;2023-04-10T21:49:13;100953.88;;;12.76;71.09
58245;BME280;44550;43.864;25.986;2023-04-10T21:53:26;100948.56;;;12.45;72.72
58245;BME280;44550;43.864;25.986;2023-04-10T21:57:29;100944.16;;;12.37;73.52
58245;BME280;44550;43.864;25.986;2023-04-10T22:01:32;100943.31;;;12.55;73.07
58245;BME280;44550;43.864;25.986;2023-04-10T22:05:38;100937.19;;;12.39;73.89
58245;BME280;44550;43.864;25.986;2023-04-10T22:09:44;100932.81;;;12.55;73.45
58245;BME280;44550;43.864;25.986;2023-04-10T22:13:51;100932.00;;;12.65;73.22
58245;BME280;44550;43.864;25.986;2023-04-10T22:18:14;100932.00;;;12.82;72.45
58245;BME280;44550;43.864;25.986;2023-04-10T22:22:15;100925.00;;;13.16;71.07
58245;BME280;44550;43.864;25.986;2023-04-10T22:26:18;100925.88;;;13.18;70.78
58245;BME280;44550;43.864;25.986;2023-04-10T22:30:28;100933.75;;;13.04;71.27
58245;BME280;44550;43.864;25.986;2023-04-10T22:34:42;100931.13;;;12.90;72.08
58245;BME280;44550;43.864;25.986;2023-04-10T22:38:47;100924.09;;;12.57;73.98
58245;BME280;44550;43.864;25.986;2023-04-10T22:42:49;100917.88;;;12.14;76.54
58245;BME280;44550;43.864;25.986;2023-04-10T22:46:52;100912.56;;;11.98;77.87
58245;BME280;44550;43.864;25.986;2023-04-10T22:50:58;100908.13;;;11.84;79.18
58245;BME280;44550;43.864;25.986;2023-04-10T22:55:10;100906.34;;;11.78;79.91
58245;BME280;44550;43.864;25.986;2023-04-10T22:59:24;100902.00;;;11.83;79.91
58245;BME280;44550;43.864;25.986;2023-04-10T23:03:39;100897.78;;;12.13;78.67
58245;BME280;44550;43.864;25.986;2023-04-10T23:07:44;100882.13;;;12.42;77.32
58245;BME280;44550;43.864;25.986;2023-04-10T23:11:55;100882.16;;;12.96;75.30
58245;BME280;44550;43.864;25.986;2023-04-10T23:16:08;100867.22;;;13.33;73.12
58245;BME280;44550;43.864;25.986;2023-04-10T23:20:14;100866.34;;;13.42;74.21
58245;BME280;44550;43.864;25.986;2023-04-10T23:24:25;100868.97;;;13.34;74.98
58245;BME280;44550;43.864;25.986;2023-04-10T23:28:29;100869.00;;;12.91;77.76
58245;BME280;44550;43.864;25.986;2023-04-10T23:32:34;100867.28;;;12.88;78.21
58245;BME280;44550;43.864;25.986;2023-04-10T23:36:47;100854.97;;;13.20;76.00
58245;BME280;44550;43.864;25.986;2023-04-10T23:40:55;100855.81;;;13.48;73.98
58245;BME280;44550;43.864;25.986;2023-04-10T23:45:02;100854.91;;;13.59;73.37
58245;BME280;44550;43.864;25.986;2023-04-10T23:49:04;100848.69;;;13.76;71.44
58245;BME280;44550;43.864;25.986;2023-04-10T23:53:24;100844.50;;;13.21;72.59
58245;BME280;44550;43.864;25.986;2023-04-10T23:57:26;100841.03;;;12.58;75.83
